sensor_id;sensor_type;location;lat;lon;timestamp;P1;durP1;ratioP1;P2;durP2;ratioP2
55493;SDS011;41355;50.390;19.096;2023-03-12T00:00:35;28.95;;;9.52;;
55493;SDS011;41355;50.390;19.096;2023-03-12T00:03:01;35.42;;;10.35;;
55493;SDS011;41355;50.390;19.096;2023-03-12T00:05:27;54.05;;;14.48;;
55493;SDS011;41355;50.390;19.096;2023-03-12T00:07:53;25.60;;;9.80;;
55493;SDS011;41355;50.390;19.096;2023-03-12T00:10:23;28.70;;;10.25;;
55493;SDS011;41355;50.390;19.096;2023-03-12T00:12:49;19.05;;;7.40;;
55493;SDS011;41355;50.390;19.096;2023-03-12T00:15:15;36.15;;;6.55;;
55493;SDS011;41355;50.390;19.096;2023-03-12T00:17:41;71.05;;;20.00;;
55493;SDS011;41355;50.390;19.096;2023-03-12T00:20:08;13.82;;;6.22;;
55493;SDS011;41355;50.390;19.096;2023-03-12T00:22:34;12.43;;;4.55;;
55493;SDS011;41355;50.390;19.096;2023-03-12T00:25:00;13.88;;;6.40;;
55493;SDS011;41355;50.390;19.096;2023-03-12T00:27:26;26.42;;;9.27;;
55493;SDS011;41355;50.390;19.096;2023-03-12T00:29:53;12.98;;;4.97;;
55493;SDS011;41355;50.390;19.096;2023-03-12T00:32:19;9.23;;;3.90;;
55493;SDS011;41355;50.390;19.096;2023-03-12T00:34:51;27.13;;;9.02;;
55493;SDS011;41355;50.390;19.096;2023-03-12T00:37:18;38.05;;;10.27;;
55493;SDS011;41355;50.390;19.096;2023-03-12T00:39:44;15.55;;;5.88;;
55493;SDS011;41355;50.390;19.096;2023-03-12T00:42:10;38.53;;;9.18;;
55493;SDS011;41355;50.390;19.096;2023-03-12T00:44:36;33.13;;;11.45;;
55493;SDS011;41355;50.390;19.096;2023-03-12T00:47:02;30.65;;;11.45;;
55493;SDS011;41355;50.390;19.096;2023-03-12T00:49:28;25.63;;;11.10;;
55493;SDS011;41355;50.390;19.096;2023-03-12T00:51:54;12.18;;;4.15;;
55493;SDS011;41355;50.390;19.096;2023-03-12T00:54:21;20.23;;;9.05;;
55493;SDS011;41355;50.390;19.096;2023-03-12T00:56:47;117.43;;;24.85;;
55493;SDS011;41355;50.390;19.096;2023-03-12T00:59:14;66.68;;;16.65;;
55493;SDS011;41355;50.390;19.096;2023-03-12T01:01:40;28.67;;;9.88;;
55493;SDS011;41355;50.390;19.096;2023-03-12T01:04:07;25.90;;;8.18;;
55493;SDS011;41355;50.390;19.096;2023-03-12T01:06:33;41.53;;;14.60;;
55493;SDS011;41355;50.390;19.096;2023-03-12T01:09:02;77.63;;;22.70;;
55493;SDS011;41355;50.390;19.096;2023-03-12T01:11:29;91.22;;;20.10;;
55493;SDS011;41355;50.390;19.096;2023-03-12T01:13:57;59.40;;;17.52;;
55493;SDS011;41355;50.390;19.096;2023-03-12T01:16:24;73.80;;;20.67;;
55493;SDS011;41355;50.390;19.096;2023-03-12T01:18:52;57.67;;;19.73;;
55493;SDS011;41355;50.390;19.096;2023-03-12T01:21:18;59.80;;;17.58;;
55493;SDS011;41355;50.390;19.096;2023-03-12T01:23:44;132.93;;;30.55;;
55493;SDS011;41355;50.390;19.096;2023-03-12T01:26:10;113.20;;;28.33;;
55493;SDS011;41355;50.390;19.096;2023-03-12T01:28:36;73.00;;;20.20;;
55493;SDS011;41355;50.390;19.096;2023-03-12T01:31:06;67.45;;;18.48;;
55493;SDS011;41355;50.390;19.096;2023-03-12T01:33:32;52.58;;;17.45;;
55493;SDS011;41355;50.390;19.096;2023-03-12T01:35:58;58.90;;;17.77;;
55493;SDS011;41355;50.390;19.096;2023-03-12T01:38:25;72.38;;;20.33;;
55493;SDS011;41355;50.390;19.096;2023-03-12T01:40:51;50.72;;;18.27;;
55493;SDS011;41355;50.390;19.096;2023-03-12T01:45:57;36.35;;;11.77;;
55493;SDS011;41355;50.390;19.096;2023-03-12T01:48:29;60.03;;;17.23;;
55493;SDS011;41355;50.390;19.096;2023-03-12T01:50:57;55.80;;;18.58;;
55493;SDS011;41355;50.390;19.096;2023-03-12T01:53:23;71.03;;;19.58;;
55493;SDS011;41355;50.390;19.096;2023-03-12T01:55:49;56.47;;;17.83;;
55493;SDS011;41355;50.390;19.096;2023-03-12T01:58:16;32.53;;;12.20;;
55493;SDS011;41355;50.390;19.096;2023-03-12T02:00:42;61.50;;;18.90;;
55493;SDS011;41355;50.390;19.096;2023-03-12T02:03:09;33.38;;;13.23;;
55493;SDS011;41355;50.390;19.096;2023-03-12T02:05:50;73.60;;;20.15;;
55493;SDS011;41355;50.390;19.096;2023-03-12T02:08:18;31.65;;;11.13;;
55493;SDS011;41355;50.390;19.096;2023-03-12T02:10:45;39.20;;;11.32;;
55493;SDS011;41355;50.390;19.096;2023-03-12T02:13:11;67.45;;;18.88;;
55493;SDS011;41355;50.390;19.096;2023-03-12T02:15:38;54.35;;;17.13;;
55493;SDS011;41355;50.390;19.096;2023-03-12T02:18:05;45.83;;;13.73;;
55493;SDS011;41355;50.390;19.096;2023-03-12T02:25:34;79.53;;;22.75;;
55493;SDS011;41355;50.390;19.096;2023-03-12T02:28:01;35.10;;;12.75;;
55493;SDS011;41355;50.390;19.096;2023-03-12T02:30:29;42.55;;;14.57;;
55493;SDS011;41355;50.390;19.096;2023-03-12T02:32:56;28.05;;;11.88;;
55493;SDS011;41355;50.390;19.096;2023-03-12T02:35:23;18.23;;;6.75;;
55493;SDS011;41355;50.390;19.096;2023-03-12T02:37:50;31.48;;;12.30;;
55493;SDS011;41355;50.390;19.096;2023-03-12T02:42:57;39.60;;;13.93;;
55493;SDS011;41355;50.390;19.096;2023-03-12T02:45:23;41.08;;;13.77;;
55493;SDS011;41355;50.390;19.096;2023-03-12T02:47:49;54.50;;;18.23;;
55493;SDS011;41355;50.390;19.096;2023-03-12T02:50:15;62.85;;;20.02;;
55493;SDS011;41355;50.390;19.096;2023-03-12T02:52:41;61.95;;;16.70;;
55493;SDS011;41355;50.390;19.096;2023-03-12T02:55:08;50.83;;;16.63;;
55493;SDS011;41355;50.390;19.096;2023-03-12T02:57:34;49.10;;;16.10;;
55493;SDS011;41355;50.390;19.096;2023-03-12T03:00:06;48.35;;;13.48;;
55493;SDS011;41355;50.390;19.096;2023-03-12T03:02:36;31.27;;;11.60;;
55493;SDS011;41355;50.390;19.096;2023-03-12T03:05:02;73.78;;;21.13;;
55493;SDS011;41355;50.390;19.096;2023-03-12T03:07:28;35.10;;;12.48;;
55493;SDS011;41355;50.390;19.096;2023-03-12T03:09:54;57.95;;;17.55;;
55493;SDS011;41355;50.390;19.096;2023-03-12T03:12:20;56.13;;;16.33;;
55493;SDS011;41355;50.390;19.096;2023-03-12T03:14:46;31.95;;;11.55;;
55493;SDS011;41355;50.390;19.096;2023-03-12T03:17:13;31.90;;;12.82;;
55493;SDS011;41355;50.390;19.096;2023-03-12T03:19:39;38.53;;;11.85;;
55493;SDS011;41355;50.390;19.096;2023-03-12T03:22:05;35.08;;;10.77;;
55493;SDS011;41355;50.390;19.096;2023-03-12T03:24:31;24.75;;;9.52;;
55493;SDS011;41355;50.390;19.096;2023-03-12T03:26:57;47.33;;;14.20;;
55493;SDS011;41355;50.390;19.096;2023-03-12T03:29:23;33.50;;;13.32;;
55493;SDS011;41355;50.390;19.096;2023-03-12T03:31:49;32.45;;;12.95;;
55493;SDS011;41355;50.390;19.096;2023-03-12T03:34:15;31.42;;;11.70;;
55493;SDS011;41355;50.390;19.096;2023-03-12T03:36:41;30.17;;;12.50;;
55493;SDS011;41355;50.390;19.096;2023-03-12T03:39:07;28.33;;;12.15;;
55493;SDS011;41355;50.390;19.096;2023-03-12T03:41:33;34.65;;;12.35;;
55493;SDS011;41355;50.390;19.096;2023-03-12T03:44:00;21.27;;;7.45;;
55493;SDS011;41355;50.390;19.096;2023-03-12T03:46:26;24.45;;;8.80;;
55493;SDS011;41355;50.390;19.096;2023-03-12T03:48:52;61.85;;;19.27;;
55493;SDS011;41355;50.390;19.096;2023-03-12T03:51:18;30.40;;;12.30;;
55493;SDS011;41355;50.390;19.096;2023-03-12T03:53:44;44.67;;;14.20;;
55493;SDS011;41355;50.390;19.096;2023-03-12T03:56:11;35.00;;;11.25;;
55493;SDS011;41355;50.390;19.096;2023-03-12T03:58:37;34.80;;;14.60;;
55493;SDS011;41355;50.390;19.096;2023-03-12T04:01:03;46.97;;;16.00;;
55493;SDS011;41355;50.390;19.096;2023-03-12T04:03:30;22.30;;;8.20;;
55493;SDS011;41355;50.390;19.096;2023-03-12T04:05:58;20.65;;;8.25;;
55493;SDS011;41355;50.390;19.096;2023-03-12T04:08:24;25.20;;;8.98;;
55493;SDS011;41355;50.390;19.096;2023-03-12T04:10:51;25.65;;;11.60;;
55493;SDS011;41355;50.390;19.096;2023-03-12T04:13:17;25.27;;;9.32;;
55493;SDS011;41355;50.390;19.096;2023-03-12T04:15:51;37.55;;;14.35;;
55493;SDS011;41355;50.390;19.096;2023-03-12T04:18:18;51.13;;;15.77;;
55493;SDS011;41355;50.390;19.096;2023-03-12T04:20:44;26.15;;;9.00;;
55493;SDS011;41355;50.390;19.096;2023-03-12T04:23:10;10.52;;;6.20;;
55493;SDS011;41355;50.390;19.096;2023-03-12T04:25:37;25.90;;;10.88;;
55493;SDS011;41355;50.390;19.096;2023-03-12T04:28:03;24.10;;;10.25;;
55493;SDS011;41355;50.390;19.096;2023-03-12T04:30:29;57.95;;;14.40;;
55493;SDS011;41355;50.390;19.096;2023-03-12T04:32:55;33.00;;;14.43;;
55493;SDS011;41355;50.390;19.096;2023-03-12T04:35:21;38.65;;;12.40;;
55493;SDS011;41355;50.390;19.096;2023-03-12T04:37:49;32.90;;;9.48;;
55493;SDS011;41355;50.390;19.096;2023-03-12T04:40:15;25.83;;;8.88;;
55493;SDS011;41355;50.390;19.096;2023-03-12T04:42:43;305.45;;;110.35;;
55493;SDS011;41355;50.390;19.096;2023-03-12T04:45:09;135.60;;;56.95;;
55493;SDS011;41355;50.390;19.096;2023-03-12T04:47:35;363.67;;;156.70;;
55493;SDS011;41355;50.390;19.096;2023-03-12T04:50:02;346.17;;;142.80;;
55493;SDS011;41355;50.390;19.096;2023-03-12T04:52:28;564.97;;;245.95;;
55493;SDS011;41355;50.390;19.096;2023-03-12T04:54:54;305.02;;;119.55;;
55493;SDS011;41355;50.390;19.096;2023-03-12T04:57:20;61.50;;;31.85;;
55493;SDS011;41355;50.390;19.096;2023-03-12T04:59:46;73.18;;;23.45;;
55493;SDS011;41355;50.390;19.096;2023-03-12T05:02:12;66.47;;;17.83;;
55493;SDS011;41355;50.390;19.096;2023-03-12T05:04:38;76.53;;;28.58;;
55493;SDS011;41355;50.390;19.096;2023-03-12T05:07:04;53.60;;;20.42;;
55493;SDS011;41355;50.390;19.096;2023-03-12T05:09:30;35.28;;;15.68;;
55493;SDS011;41355;50.390;19.096;2023-03-12T05:11:56;20.33;;;7.90;;
55493;SDS011;41355;50.390;19.096;2023-03-12T05:14:22;31.13;;;9.95;;
55493;SDS011;41355;50.390;19.096;2023-03-12T05:16:48;23.20;;;9.55;;
55493;SDS011;41355;50.390;19.096;2023-03-12T05:19:14;33.53;;;14.27;;
55493;SDS011;41355;50.390;19.096;2023-03-12T05:21:41;27.35;;;10.18;;
55493;SDS011;41355;50.390;19.096;2023-03-12T05:24:08;36.20;;;12.90;;
55493;SDS011;41355;50.390;19.096;2023-03-12T05:26:34;27.52;;;10.90;;
55493;SDS011;41355;50.390;19.096;2023-03-12T05:29:00;30.65;;;9.10;;
55493;SDS011;41355;50.390;19.096;2023-03-12T05:31:27;22.25;;;10.30;;
55493;SDS011;41355;50.390;19.096;2023-03-12T05:33:59;17.75;;;8.23;;
55493;SDS011;41355;50.390;19.096;2023-03-12T05:36:25;17.73;;;8.45;;
55493;SDS011;41355;50.390;19.096;2023-03-12T05:38:51;31.65;;;11.70;;
55493;SDS011;41355;50.390;19.096;2023-03-12T05:41:21;19.15;;;6.68;;
55493;SDS011;41355;50.390;19.096;2023-03-12T05:43:48;21.73;;;8.55;;
55493;SDS011;41355;50.390;19.096;2023-03-12T05:46:14;18.02;;;8.55;;
55493;SDS011;41355;50.390;19.096;2023-03-12T05:48:40;19.20;;;4.85;;
55493;SDS011;41355;50.390;19.096;2023-03-12T05:51:06;24.95;;;9.77;;
55493;SDS011;41355;50.390;19.096;2023-03-12T05:53:32;15.30;;;7.05;;
55493;SDS011;41355;50.390;19.096;2023-03-12T05:56:02;23.67;;;8.63;;
55493;SDS011;41355;50.390;19.096;2023-03-12T05:58:29;26.45;;;9.43;;
55493;SDS011;41355;50.390;19.096;2023-03-12T06:00:55;14.73;;;5.20;;
55493;SDS011;41355;50.390;19.096;2023-03-12T06:03:21;25.67;;;8.85;;
55493;SDS011;41355;50.390;19.096;2023-03-12T06:05:47;16.73;;;5.47;;
55493;SDS011;41355;50.390;19.096;2023-03-12T06:08:13;20.73;;;10.02;;
55493;SDS011;41355;50.390;19.096;2023-03-12T06:10:39;22.33;;;9.80;;
55493;SDS011;41355;50.390;19.096;2023-03-12T06:13:05;22.58;;;8.65;;
55493;SDS011;41355;50.390;19.096;2023-03-12T06:15:32;23.33;;;8.60;;
55493;SDS011;41355;50.390;19.096;2023-03-12T06:17:58;14.73;;;6.32;;
55493;SDS011;41355;50.390;19.096;2023-03-12T06:20:24;16.67;;;5.32;;
55493;SDS011;41355;50.390;19.096;2023-03-12T06:22:50;18.02;;;6.60;;
55493;SDS011;41355;50.390;19.096;2023-03-12T06:25:17;28.95;;;11.40;;
55493;SDS011;41355;50.390;19.096;2023-03-12T06:27:43;32.33;;;10.02;;
55493;SDS011;41355;50.390;19.096;2023-03-12T06:30:09;27.63;;;7.35;;
55493;SDS011;41355;50.390;19.096;2023-03-12T06:32:35;30.55;;;9.98;;
55493;SDS011;41355;50.390;19.096;2023-03-12T06:35:01;38.10;;;12.73;;
55493;SDS011;41355;50.390;19.096;2023-03-12T06:37:29;24.15;;;9.43;;
55493;SDS011;41355;50.390;19.096;2023-03-12T06:39:55;25.23;;;9.38;;
55493;SDS011;41355;50.390;19.096;2023-03-12T06:42:21;24.25;;;9.02;;
55493;SDS011;41355;50.390;19.096;2023-03-12T06:44:48;21.13;;;7.82;;
55493;SDS011;41355;50.390;19.096;2023-03-12T06:47:14;27.58;;;10.98;;
55493;SDS011;41355;50.390;19.096;2023-03-12T06:49:40;34.38;;;12.88;;
55493;SDS011;41355;50.390;19.096;2023-03-12T06:52:07;20.90;;;7.28;;
55493;SDS011;41355;50.390;19.096;2023-03-12T06:54:33;20.10;;;7.97;;
55493;SDS011;41355;50.390;19.096;2023-03-12T06:56:59;12.43;;;5.68;;
55493;SDS011;41355;50.390;19.096;2023-03-12T06:59:25;24.63;;;10.18;;
55493;SDS011;41355;50.390;19.096;2023-03-12T07:02:08;18.52;;;7.25;;
55493;SDS011;41355;50.390;19.096;2023-03-12T07:04:35;17.35;;;7.13;;
55493;SDS011;41355;50.390;19.096;2023-03-12T07:07:01;22.40;;;6.70;;
55493;SDS011;41355;50.390;19.096;2023-03-12T07:09:27;18.10;;;7.07;;
55493;SDS011;41355;50.390;19.096;2023-03-12T07:11:53;34.47;;;11.15;;
55493;SDS011;41355;50.390;19.096;2023-03-12T07:14:19;22.65;;;7.22;;
55493;SDS011;41355;50.390;19.096;2023-03-12T07:16:45;31.20;;;8.77;;
55493;SDS011;41355;50.390;19.096;2023-03-12T07:19:11;64.95;;;20.05;;
55493;SDS011;41355;50.390;19.096;2023-03-12T07:21:37;14.25;;;6.30;;
55493;SDS011;41355;50.390;19.096;2023-03-12T07:24:04;32.75;;;10.98;;
55493;SDS011;41355;50.390;19.096;2023-03-12T07:26:33;23.40;;;8.52;;
55493;SDS011;41355;50.390;19.096;2023-03-12T07:29:00;29.58;;;9.43;;
55493;SDS011;41355;50.390;19.096;2023-03-12T07:31:26;45.95;;;16.20;;
55493;SDS011;41355;50.390;19.096;2023-03-12T07:33:52;23.98;;;8.68;;
55493;SDS011;41355;50.390;19.096;2023-03-12T07:36:18;25.02;;;7.57;;
55493;SDS011;41355;50.390;19.096;2023-03-12T07:38:44;29.42;;;9.77;;
55493;SDS011;41355;50.390;19.096;2023-03-12T07:41:10;120.53;;;34.38;;
55493;SDS011;41355;50.390;19.096;2023-03-12T07:43:36;27.73;;;9.25;;
55493;SDS011;41355;50.390;19.096;2023-03-12T07:46:02;74.57;;;24.63;;
55493;SDS011;41355;50.390;19.096;2023-03-12T07:48:28;17.20;;;5.65;;
55493;SDS011;41355;50.390;19.096;2023-03-12T07:50:54;45.92;;;12.82;;
55493;SDS011;41355;50.390;19.096;2023-03-12T07:53:20;27.20;;;9.55;;
55493;SDS011;41355;50.390;19.096;2023-03-12T07:55:46;30.15;;;9.85;;
55493;SDS011;41355;50.390;19.096;2023-03-12T07:58:13;37.25;;;13.45;;
55493;SDS011;41355;50.390;19.096;2023-03-12T08:00:40;21.13;;;7.45;;
55493;SDS011;41355;50.390;19.096;2023-03-12T08:03:06;16.20;;;6.05;;
55493;SDS011;41355;50.390;19.096;2023-03-12T08:05:32;21.77;;;6.95;;
55493;SDS011;41355;50.390;19.096;2023-03-12T08:07:58;22.15;;;8.23;;
55493;SDS011;41355;50.390;19.096;2023-03-12T08:10:24;47.67;;;14.82;;
55493;SDS011;41355;50.390;19.096;2023-03-12T08:12:50;14.93;;;5.63;;
55493;SDS011;41355;50.390;19.096;2023-03-12T08:15:17;35.45;;;15.05;;
55493;SDS011;41355;50.390;19.096;2023-03-12T08:17:43;39.08;;;15.80;;
55493;SDS011;41355;50.390;19.096;2023-03-12T08:20:09;18.88;;;7.03;;
55493;SDS011;41355;50.390;19.096;2023-03-12T08:22:35;13.35;;;4.07;;
55493;SDS011;41355;50.390;19.096;2023-03-12T08:25:02;11.05;;;3.90;;
55493;SDS011;41355;50.390;19.096;2023-03-12T08:27:28;14.23;;;4.65;;
55493;SDS011;41355;50.390;19.096;2023-03-12T08:29:54;16.70;;;6.13;;
55493;SDS011;41355;50.390;19.096;2023-03-12T08:32:20;13.38;;;5.25;;
55493;SDS011;41355;50.390;19.096;2023-03-12T08:34:46;19.38;;;6.13;;
55493;SDS011;41355;50.390;19.096;2023-03-12T08:37:13;11.52;;;3.55;;
55493;SDS011;41355;50.390;19.096;2023-03-12T08:39:39;11.82;;;4.53;;
55493;SDS011;41355;50.390;19.096;2023-03-12T08:42:05;20.77;;;7.88;;
55493;SDS011;41355;50.390;19.096;2023-03-12T08:44:31;10.32;;;4.35;;
55493;SDS011;41355;50.390;19.096;2023-03-12T08:46:58;9.50;;;3.53;;
55493;SDS011;41355;50.390;19.096;2023-03-12T08:49:24;12.23;;;3.40;;
55493;SDS011;41355;50.390;19.096;2023-03-12T08:51:50;12.05;;;4.75;;
55493;SDS011;41355;50.390;19.096;2023-03-12T08:54:17;9.75;;;4.20;;
55493;SDS011;41355;50.390;19.096;2023-03-12T08:56:43;14.95;;;6.43;;
55493;SDS011;41355;50.390;19.096;2023-03-12T08:59:11;13.50;;;5.65;;
55493;SDS011;41355;50.390;19.096;2023-03-12T09:01:37;9.77;;;4.35;;
55493;SDS011;41355;50.390;19.096;2023-03-12T09:04:04;18.17;;;7.22;;
55493;SDS011;41355;50.390;19.096;2023-03-12T09:06:30;15.02;;;5.60;;
55493;SDS011;41355;50.390;19.096;2023-03-12T09:08:57;9.73;;;4.55;;
55493;SDS011;41355;50.390;19.096;2023-03-12T09:11:29;16.90;;;6.22;;
55493;SDS011;41355;50.390;19.096;2023-03-12T09:13:55;8.63;;;3.05;;
55493;SDS011;41355;50.390;19.096;2023-03-12T09:16:21;44.10;;;15.13;;
55493;SDS011;41355;50.390;19.096;2023-03-12T09:18:47;49.83;;;13.98;;
55493;SDS011;41355;50.390;19.096;2023-03-12T09:21:13;28.17;;;10.48;;
55493;SDS011;41355;50.390;19.096;2023-03-12T09:23:39;59.00;;;19.17;;
55493;SDS011;41355;50.390;19.096;2023-03-12T09:26:08;18.55;;;7.07;;
55493;SDS011;41355;50.390;19.096;2023-03-12T09:28:34;35.08;;;11.55;;
55493;SDS011;41355;50.390;19.096;2023-03-12T09:31:01;42.88;;;13.30;;
55493;SDS011;41355;50.390;19.096;2023-03-12T09:33:27;33.35;;;13.90;;
55493;SDS011;41355;50.390;19.096;2023-03-12T09:35:56;33.22;;;13.18;;
55493;SDS011;41355;50.390;19.096;2023-03-12T09:38:23;22.90;;;8.25;;
55493;SDS011;41355;50.390;19.096;2023-03-12T09:40:49;19.65;;;9.35;;
55493;SDS011;41355;50.390;19.096;2023-03-12T09:45:45;10.35;;;3.17;;
55493;SDS011;41355;50.390;19.096;2023-03-12T09:48:13;15.82;;;6.25;;
55493;SDS011;41355;50.390;19.096;2023-03-12T09:50:41;16.25;;;5.38;;
55493;SDS011;41355;50.390;19.096;2023-03-12T09:53:15;11.43;;;4.93;;
55493;SDS011;41355;50.390;19.096;2023-03-12T09:55:47;17.75;;;4.63;;
55493;SDS011;41355;50.390;19.096;2023-03-12T09:58:17;16.70;;;6.70;;
55493;SDS011;41355;50.390;19.096;2023-03-12T10:00:45;12.38;;;2.95;;
55493;SDS011;41355;50.390;19.096;2023-03-12T10:10:58;9.02;;;3.55;;
55493;SDS011;41355;50.390;19.096;2023-03-12T10:18:57;50.83;;;12.65;;
55493;SDS011;41355;50.390;19.096;2023-03-12T10:21:31;80.28;;;21.30;;
55493;SDS011;41355;50.390;19.096;2023-03-12T10:27:01;74.93;;;19.25;;
55493;SDS011;41355;50.390;19.096;2023-03-12T10:29:28;114.38;;;32.47;;
55493;SDS011;41355;50.390;19.096;2023-03-12T10:31:56;76.32;;;24.25;;
55493;SDS011;41355;50.390;19.096;2023-03-12T10:34:26;38.15;;;12.35;;
55493;SDS011;41355;50.390;19.096;2023-03-12T10:36:56;26.13;;;9.20;;
55493;SDS011;41355;50.390;19.096;2023-03-12T10:39:23;31.20;;;11.05;;
55493;SDS011;41355;50.390;19.096;2023-03-12T10:41:49;31.95;;;9.63;;
55493;SDS011;41355;50.390;19.096;2023-03-12T10:44:19;198.77;;;53.90;;
55493;SDS011;41355;50.390;19.096;2023-03-12T10:49:24;157.65;;;47.90;;
55493;SDS011;41355;50.390;19.096;2023-03-12T10:51:54;174.00;;;55.85;;
55493;SDS011;41355;50.390;19.096;2023-03-12T10:54:21;8.52;;;2.95;;
55493;SDS011;41355;50.390;19.096;2023-03-12T10:56:48;41.63;;;15.90;;
55493;SDS011;41355;50.390;19.096;2023-03-12T10:59:19;12.77;;;2.38;;
55493;SDS011;41355;50.390;19.096;2023-03-12T11:01:49;24.13;;;10.63;;
55493;SDS011;41355;50.390;19.096;2023-03-12T11:04:17;17.27;;;6.95;;
55493;SDS011;41355;50.390;19.096;2023-03-12T11:07:01;59.50;;;17.27;;
55493;SDS011;41355;50.390;19.096;2023-03-12T11:09:28;61.88;;;20.02;;
55493;SDS011;41355;50.390;19.096;2023-03-12T11:11:55;67.97;;;19.38;;
55493;SDS011;41355;50.390;19.096;2023-03-12T11:14:22;75.43;;;21.40;;
55493;SDS011;41355;50.390;19.096;2023-03-12T11:16:49;106.40;;;33.35;;
55493;SDS011;41355;50.390;19.096;2023-03-12T11:19:29;31.25;;;9.50;;
55493;SDS011;41355;50.390;19.096;2023-03-12T11:21:57;10.70;;;4.25;;
55493;SDS011;41355;50.390;19.096;2023-03-12T11:24:23;23.88;;;7.93;;
55493;SDS011;41355;50.390;19.096;2023-03-12T11:26:51;36.25;;;12.93;;
55493;SDS011;41355;50.390;19.096;2023-03-12T11:29:28;23.40;;;7.70;;
55493;SDS011;41355;50.390;19.096;2023-03-12T11:34:33;11.43;;;3.28;;
55493;SDS011;41355;50.390;19.096;2023-03-12T11:55:22;147.63;;;29.08;;
55493;SDS011;41355;50.390;19.096;2023-03-12T11:57:55;88.25;;;21.38;;
55493;SDS011;41355;50.390;19.096;2023-03-12T12:05:37;177.68;;;38.92;;
55493;SDS011;41355;50.390;19.096;2023-03-12T12:11:00;81.38;;;25.15;;
55493;SDS011;41355;50.390;19.096;2023-03-12T12:18:39;36.22;;;11.40;;
55493;SDS011;41355;50.390;19.096;2023-03-12T12:23:44;119.68;;;35.10;;
55493;SDS011;41355;50.390;19.096;2023-03-12T12:26:13;153.93;;;40.25;;
55493;SDS011;41355;50.390;19.096;2023-03-12T12:31:28;95.82;;;26.38;;
55493;SDS011;41355;50.390;19.096;2023-03-12T12:34:05;59.07;;;16.33;;
55493;SDS011;41355;50.390;19.096;2023-03-12T12:36:36;49.17;;;19.02;;
55493;SDS011;41355;50.390;19.096;2023-03-12T12:39:11;65.25;;;20.65;;
55493;SDS011;41355;50.390;19.096;2023-03-12T12:41:38;22.27;;;6.75;;
55493;SDS011;41355;50.390;19.096;2023-03-12T12:44:13;49.53;;;11.93;;
55493;SDS011;41355;50.390;19.096;2023-03-12T12:46:42;26.80;;;8.98;;
55493;SDS011;41355;50.390;19.096;2023-03-12T12:51:38;8.68;;;3.58;;
55493;SDS011;41355;50.390;19.096;2023-03-12T12:56:39;34.95;;;13.77;;
55493;SDS011;41355;50.390;19.096;2023-03-12T13:01:34;21.48;;;8.50;;
55493;SDS011;41355;50.390;19.096;2023-03-12T13:07:02;7.38;;;3.60;;
55493;SDS011;41355;50.390;19.096;2023-03-12T13:09:42;25.00;;;10.50;;
55493;SDS011;41355;50.390;19.096;2023-03-12T13:14:41;14.07;;;6.38;;
55493;SDS011;41355;50.390;19.096;2023-03-12T13:17:18;11.13;;;3.58;;
55493;SDS011;41355;50.390;19.096;2023-03-12T13:19:46;12.15;;;5.72;;
55493;SDS011;41355;50.390;19.096;2023-03-12T13:27:39;203.65;;;63.60;;
55493;SDS011;41355;50.390;19.096;2023-03-12T13:40:37;40.75;;;13.85;;
55493;SDS011;41355;50.390;19.096;2023-03-12T13:43:14;23.60;;;8.93;;
55493;SDS011;41355;50.390;19.096;2023-03-12T13:48:16;16.45;;;7.68;;
55493;SDS011;41355;50.390;19.096;2023-03-12T13:50:48;37.15;;;13.25;;
55493;SDS011;41355;50.390;19.096;2023-03-12T13:53:19;17.52;;;6.20;;
55493;SDS011;41355;50.390;19.096;2023-03-12T13:55:48;11.60;;;4.55;;
55493;SDS011;41355;50.390;19.096;2023-03-12T13:58:25;11.43;;;5.93;;
55493;SDS011;41355;50.390;19.096;2023-03-12T14:01:04;8.77;;;4.00;;
55493;SDS011;41355;50.390;19.096;2023-03-12T14:05:58;14.80;;;4.70;;
55493;SDS011;41355;50.390;19.096;2023-03-12T14:16:47;9.90;;;3.25;;
55493;SDS011;41355;50.390;19.096;2023-03-12T14:19:15;22.00;;;7.20;;
55493;SDS011;41355;50.390;19.096;2023-03-12T14:21:43;8.77;;;2.65;;
55493;SDS011;41355;50.390;19.096;2023-03-12T14:24:23;17.60;;;6.18;;
55493;SDS011;41355;50.390;19.096;2023-03-12T14:26:49;16.45;;;5.50;;
55493;SDS011;41355;50.390;19.096;2023-03-12T14:31:42;23.92;;;9.90;;
55493;SDS011;41355;50.390;19.096;2023-03-12T14:34:11;112.45;;;35.72;;
55493;SDS011;41355;50.390;19.096;2023-03-12T14:37:02;89.05;;;31.63;;
55493;SDS011;41355;50.390;19.096;2023-03-12T14:39:27;16.73;;;6.80;;
55493;SDS011;41355;50.390;19.096;2023-03-12T14:42:00;13.15;;;4.63;;
55493;SDS011;41355;50.390;19.096;2023-03-12T14:44:28;18.33;;;5.70;;
55493;SDS011;41355;50.390;19.096;2023-03-12T14:49:23;27.52;;;9.45;;
55493;SDS011;41355;50.390;19.096;2023-03-12T14:51:50;125.28;;;43.35;;
55493;SDS011;41355;50.390;19.096;2023-03-12T14:54:17;10.27;;;4.63;;
55493;SDS011;41355;50.390;19.096;2023-03-12T14:56:44;14.07;;;8.00;;
55493;SDS011;41355;50.390;19.096;2023-03-12T14:59:27;42.45;;;13.00;;
55493;SDS011;41355;50.390;19.096;2023-03-12T15:04:25;19.45;;;7.70;;
55493;SDS011;41355;50.390;19.096;2023-03-12T15:06:56;19.17;;;9.23;;
55493;SDS011;41355;50.390;19.096;2023-03-12T15:09:27;19.20;;;7.10;;
55493;SDS011;41355;50.390;19.096;2023-03-12T15:11:57;31.55;;;8.00;;
55493;SDS011;41355;50.390;19.096;2023-03-12T15:14:24;127.70;;;23.95;;
55493;SDS011;41355;50.390;19.096;2023-03-12T15:16:51;233.30;;;46.00;;
55493;SDS011;41355;50.390;19.096;2023-03-12T15:19:22;35.50;;;10.23;;
55493;SDS011;41355;50.390;19.096;2023-03-12T15:21:51;25.48;;;8.38;;
55493;SDS011;41355;50.390;19.096;2023-03-12T15:24:18;73.07;;;21.48;;
55493;SDS011;41355;50.390;19.096;2023-03-12T15:26:45;12.10;;;5.10;;
55493;SDS011;41355;50.390;19.096;2023-03-12T15:29:24;36.20;;;12.65;;
55493;SDS011;41355;50.390;19.096;2023-03-12T15:31:51;9.88;;;4.07;;
55493;SDS011;41355;50.390;19.096;2023-03-12T15:34:28;64.13;;;24.15;;
55493;SDS011;41355;50.390;19.096;2023-03-12T15:36:58;54.28;;;19.48;;
55493;SDS011;41355;50.390;19.096;2023-03-12T15:39:32;19.48;;;8.85;;
55493;SDS011;41355;50.390;19.096;2023-03-12T15:41:59;34.88;;;13.82;;
55493;SDS011;41355;50.390;19.096;2023-03-12T15:44:27;45.33;;;22.75;;
55493;SDS011;41355;50.390;19.096;2023-03-12T15:47:02;16.30;;;8.73;;
55493;SDS011;41355;50.390;19.096;2023-03-12T15:49:30;15.98;;;6.22;;
55493;SDS011;41355;50.390;19.096;2023-03-12T15:51:58;13.48;;;6.18;;
55493;SDS011;41355;50.390;19.096;2023-03-12T15:54:25;30.30;;;10.35;;
55493;SDS011;41355;50.390;19.096;2023-03-12T15:56:52;12.43;;;5.32;;
55493;SDS011;41355;50.390;19.096;2023-03-12T15:59:23;11.15;;;4.22;;
55493;SDS011;41355;50.390;19.096;2023-03-12T16:01:53;9.68;;;4.53;;
55493;SDS011;41355;50.390;19.096;2023-03-12T16:04:20;11.90;;;4.05;;
55493;SDS011;41355;50.390;19.096;2023-03-12T16:06:47;10.18;;;3.97;;
55493;SDS011;41355;50.390;19.096;2023-03-12T16:09:25;8.20;;;3.35;;
55493;SDS011;41355;50.390;19.096;2023-03-12T16:11:55;13.20;;;3.80;;
55493;SDS011;41355;50.390;19.096;2023-03-12T16:14:23;9.65;;;4.07;;
55493;SDS011;41355;50.390;19.096;2023-03-12T16:16:49;6.90;;;3.10;;
55493;SDS011;41355;50.390;19.096;2023-03-12T16:19:16;9.65;;;3.95;;